sensor_id;sensor_type;location;lat;lon;timestamp;P1;durP1;ratioP1;P2;durP2;ratioP2
37203;SDS011;23098;48.054;10.636;2023-05-29T00:01:29;16.05;;;7.22;;
37203;SDS011;23098;48.054;10.636;2023-05-29T00:03:56;13.88;;;8.45;;
37203;SDS011;23098;48.054;10.636;2023-05-29T00:06:22;12.50;;;7.32;;
37203;SDS011;23098;48.054;10.636;2023-05-29T00:08:48;13.90;;;7.82;;
37203;SDS011;23098;48.054;10.636;2023-05-29T00:11:14;12.75;;;7.60;;
37203;SDS011;23098;48.054;10.636;2023-05-29T00:13:39;13.25;;;7.40;;
37203;SDS011;23098;48.054;10.636;2023-05-29T00:16:05;13.73;;;8.02;;
37203;SDS011;23098;48.054;10.636;2023-05-29T00:18:31;16.08;;;7.90;;
37203;SDS011;23098;48.054;10.636;2023-05-29T00:20:56;15.77;;;7.32;;
37203;SDS011;23098;48.054;10.636;2023-05-29T00:23:22;11.88;;;6.60;;
37203;SDS011;23098;48.054;10.636;2023-05-29T00:25:48;12.75;;;7.13;;
37203;SDS011;23098;48.054;10.636;2023-05-29T00:28:13;11.68;;;6.70;;
37203;SDS011;23098;48.054;10.636;2023-05-29T00:30:39;15.27;;;6.97;;
37203;SDS011;23098;48.054;10.636;2023-05-29T00:33:04;12.35;;;6.50;;
37203;SDS011;23098;48.054;10.636;2023-05-29T00:35:30;15.63;;;6.72;;
37203;SDS011;23098;48.054;10.636;2023-05-29T00:37:56;17.90;;;6.88;;
37203;SDS011;23098;48.054;10.636;2023-05-29T00:40:22;14.52;;;7.05;;
37203;SDS011;23098;48.054;10.636;2023-05-29T00:42:48;13.70;;;7.38;;
37203;SDS011;23098;48.054;10.636;2023-05-29T00:45:13;16.23;;;7.35;;
37203;SDS011;23098;48.054;10.636;2023-05-29T00:47:40;15.65;;;7.28;;
37203;SDS011;23098;48.054;10.636;2023-05-29T00:50:07;13.48;;;7.15;;
37203;SDS011;23098;48.054;10.636;2023-05-29T00:52:34;10.88;;;6.13;;
37203;SDS011;23098;48.054;10.636;2023-05-29T00:55:00;13.05;;;6.28;;
37203;SDS011;23098;48.054;10.636;2023-05-29T00:57:27;14.32;;;6.55;;
37203;SDS011;23098;48.054;10.636;2023-05-29T00:59:53;11.55;;;6.97;;
37203;SDS011;23098;48.054;10.636;2023-05-29T01:02:20;13.27;;;7.07;;
37203;SDS011;23098;48.054;10.636;2023-05-29T01:04:45;13.18;;;7.18;;
37203;SDS011;23098;48.054;10.636;2023-05-29T01:07:11;13.57;;;6.60;;
37203;SDS011;23098;48.054;10.636;2023-05-29T01:09:37;14.48;;;7.40;;
37203;SDS011;23098;48.054;10.636;2023-05-29T01:12:06;16.50;;;7.28;;
37203;SDS011;23098;48.054;10.636;2023-05-29T01:14:58;13.88;;;7.22;;
37203;SDS011;23098;48.054;10.636;2023-05-29T01:20:24;11.23;;;7.03;;
37203;SDS011;23098;48.054;10.636;2023-05-29T01:23:06;11.32;;;7.10;;
37203;SDS011;23098;48.054;10.636;2023-05-29T01:25:46;13.90;;;6.82;;
37203;SDS011;23098;48.054;10.636;2023-05-29T01:28:24;12.65;;;6.65;;
37203;SDS011;23098;48.054;10.636;2023-05-29T01:30:51;15.80;;;7.13;;
37203;SDS011;23098;48.054;10.636;2023-05-29T01:33:21;15.68;;;7.00;;
37203;SDS011;23098;48.054;10.636;2023-05-29T01:35:47;11.55;;;6.75;;
37203;SDS011;23098;48.054;10.636;2023-05-29T01:38:12;12.63;;;7.25;;
37203;SDS011;23098;48.054;10.636;2023-05-29T01:40:38;14.02;;;6.85;;
37203;SDS011;23098;48.054;10.636;2023-05-29T01:43:04;13.23;;;6.53;;
37203;SDS011;23098;48.054;10.636;2023-05-29T01:45:30;13.48;;;6.80;;
37203;SDS011;23098;48.054;10.636;2023-05-29T01:47:56;13.10;;;7.05;;
37203;SDS011;23098;48.054;10.636;2023-05-29T01:50:22;12.82;;;6.55;;
37203;SDS011;23098;48.054;10.636;2023-05-29T01:52:49;14.35;;;6.97;;
37203;SDS011;23098;48.054;10.636;2023-05-29T01:55:14;12.20;;;6.55;;
37203;SDS011;23098;48.054;10.636;2023-05-29T01:57:40;11.50;;;6.78;;
37203;SDS011;23098;48.054;10.636;2023-05-29T02:00:06;14.10;;;6.78;;
37203;SDS011;23098;48.054;10.636;2023-05-29T02:02:39;12.45;;;5.90;;
37203;SDS011;23098;48.054;10.636;2023-05-29T02:05:05;15.27;;;7.50;;
37203;SDS011;23098;48.054;10.636;2023-05-29T02:07:32;14.63;;;6.93;;
37203;SDS011;23098;48.054;10.636;2023-05-29T02:09:58;14.60;;;7.25;;
37203;SDS011;23098;48.054;10.636;2023-05-29T02:12:24;14.35;;;7.25;;
37203;SDS011;23098;48.054;10.636;2023-05-29T02:14:50;14.40;;;7.15;;
37203;SDS011;23098;48.054;10.636;2023-05-29T02:17:15;13.38;;;6.78;;
37203;SDS011;23098;48.054;10.636;2023-05-29T02:19:41;13.65;;;7.10;;
37203;SDS011;23098;48.054;10.636;2023-05-29T02:22:07;12.18;;;7.00;;
37203;SDS011;23098;48.054;10.636;2023-05-29T02:24:32;11.98;;;6.22;;
37203;SDS011;23098;48.054;10.636;2023-05-29T02:26:58;10.93;;;6.40;;
37203;SDS011;23098;48.054;10.636;2023-05-29T02:29:23;10.93;;;6.55;;
37203;SDS011;23098;48.054;10.636;2023-05-29T02:31:49;14.70;;;7.53;;
37203;SDS011;23098;48.054;10.636;2023-05-29T02:34:15;13.48;;;7.40;;
37203;SDS011;23098;48.054;10.636;2023-05-29T02:36:40;13.35;;;7.38;;
37203;SDS011;23098;48.054;10.636;2023-05-29T02:39:06;12.80;;;7.20;;
37203;SDS011;23098;48.054;10.636;2023-05-29T02:41:31;11.40;;;6.70;;
37203;SDS011;23098;48.054;10.636;2023-05-29T02:43:57;15.30;;;6.30;;
37203;SDS011;23098;48.054;10.636;2023-05-29T02:46:22;17.58;;;7.07;;
37203;SDS011;23098;48.054;10.636;2023-05-29T02:48:48;11.63;;;6.85;;
37203;SDS011;23098;48.054;10.636;2023-05-29T02:51:13;13.57;;;6.55;;
37203;SDS011;23098;48.054;10.636;2023-05-29T02:53:39;13.43;;;6.80;;
37203;SDS011;23098;48.054;10.636;2023-05-29T02:56:05;13.65;;;7.03;;
37203;SDS011;23098;48.054;10.636;2023-05-29T02:58:33;10.05;;;6.25;;
37203;SDS011;23098;48.054;10.636;2023-05-29T03:01:00;12.98;;;7.25;;
37203;SDS011;23098;48.054;10.636;2023-05-29T03:03:27;14.13;;;6.60;;
37203;SDS011;23098;48.054;10.636;2023-05-29T03:05:52;12.55;;;6.70;;
37203;SDS011;23098;48.054;10.636;2023-05-29T03:08:18;12.50;;;6.35;;
37203;SDS011;23098;48.054;10.636;2023-05-29T03:10:44;12.55;;;6.57;;
37203;SDS011;23098;48.054;10.636;2023-05-29T03:13:10;14.20;;;6.38;;
37203;SDS011;23098;48.054;10.636;2023-05-29T03:15:35;10.02;;;6.25;;
37203;SDS011;23098;48.054;10.636;2023-05-29T03:18:01;11.27;;;6.38;;
37203;SDS011;23098;48.054;10.636;2023-05-29T03:20:26;12.38;;;6.75;;
37203;SDS011;23098;48.054;10.636;2023-05-29T03:22:53;10.32;;;6.43;;
37203;SDS011;23098;48.054;10.636;2023-05-29T03:25:18;11.00;;;6.38;;
37203;SDS011;23098;48.054;10.636;2023-05-29T03:27:45;12.23;;;6.72;;
37203;SDS011;23098;48.054;10.636;2023-05-29T03:30:10;13.27;;;7.07;;
37203;SDS011;23098;48.054;10.636;2023-05-29T03:32:36;11.82;;;6.55;;
37203;SDS011;23098;48.054;10.636;2023-05-29T03:35:02;12.52;;;6.47;;
37203;SDS011;23098;48.054;10.636;2023-05-29T03:37:28;10.32;;;6.10;;
37203;SDS011;23098;48.054;10.636;2023-05-29T03:39:54;14.38;;;7.00;;
37203;SDS011;23098;48.054;10.636;2023-05-29T03:42:20;13.02;;;6.68;;
37203;SDS011;23098;48.054;10.636;2023-05-29T03:44:46;11.65;;;6.80;;
37203;SDS011;23098;48.054;10.636;2023-05-29T03:47:11;13.40;;;7.10;;
37203;SDS011;23098;48.054;10.636;2023-05-29T03:49:37;12.90;;;6.47;;
37203;SDS011;23098;48.054;10.636;2023-05-29T03:52:03;16.90;;;7.15;;
37203;SDS011;23098;48.054;10.636;2023-05-29T03:54:29;11.60;;;6.95;;
37203;SDS011;23098;48.054;10.636;2023-05-29T03:56:54;13.73;;;6.57;;
37203;SDS011;23098;48.054;10.636;2023-05-29T03:59:20;12.32;;;6.53;;
37203;SDS011;23098;48.054;10.636;2023-05-29T04:01:46;10.65;;;6.50;;
37203;SDS011;23098;48.054;10.636;2023-05-29T04:04:11;15.75;;;7.15;;
37203;SDS011;23098;48.054;10.636;2023-05-29T04:06:37;10.95;;;6.15;;
37203;SDS011;23098;48.054;10.636;2023-05-29T04:09:06;10.90;;;6.50;;
37203;SDS011;23098;48.054;10.636;2023-05-29T04:11:32;12.15;;;6.57;;
37203;SDS011;23098;48.054;10.636;2023-05-29T04:14:01;11.00;;;5.80;;
37203;SDS011;23098;48.054;10.636;2023-05-29T04:16:27;11.25;;;6.07;;
37203;SDS011;23098;48.054;10.636;2023-05-29T04:18:53;9.85;;;6.03;;
37203;SDS011;23098;48.054;10.636;2023-05-29T04:21:21;11.50;;;5.90;;
37203;SDS011;23098;48.054;10.636;2023-05-29T04:23:46;10.38;;;5.78;;
37203;SDS011;23098;48.054;10.636;2023-05-29T04:26:13;9.05;;;6.00;;
37203;SDS011;23098;48.054;10.636;2023-05-29T04:28:38;12.73;;;6.53;;
37203;SDS011;23098;48.054;10.636;2023-05-29T04:31:04;11.70;;;6.05;;
37203;SDS011;23098;48.054;10.636;2023-05-29T04:33:31;8.57;;;5.63;;
37203;SDS011;23098;48.054;10.636;2023-05-29T04:35:57;14.25;;;6.32;;
37203;SDS011;23098;48.054;10.636;2023-05-29T04:38:25;11.02;;;6.18;;
37203;SDS011;23098;48.054;10.636;2023-05-29T04:40:51;8.75;;;6.10;;
37203;SDS011;23098;48.054;10.636;2023-05-29T04:43:22;11.07;;;6.00;;
37203;SDS011;23098;48.054;10.636;2023-05-29T04:45:47;12.05;;;6.47;;
37203;SDS011;23098;48.054;10.636;2023-05-29T04:48:13;10.68;;;6.43;;
37203;SDS011;23098;48.054;10.636;2023-05-29T04:50:38;9.82;;;5.95;;
37203;SDS011;23098;48.054;10.636;2023-05-29T04:53:04;9.63;;;5.88;;
37203;SDS011;23098;48.054;10.636;2023-05-29T04:55:30;9.07;;;6.57;;
37203;SDS011;23098;48.054;10.636;2023-05-29T04:57:55;9.65;;;6.38;;
37203;SDS011;23098;48.054;10.636;2023-05-29T05:00:22;9.10;;;6.45;;
37203;SDS011;23098;48.054;10.636;2023-05-29T05:02:48;7.40;;;5.63;;
37203;SDS011;23098;48.054;10.636;2023-05-29T05:05:14;9.80;;;6.75;;
37203;SDS011;23098;48.054;10.636;2023-05-29T05:07:40;10.52;;;6.10;;
37203;SDS011;23098;48.054;10.636;2023-05-29T05:10:05;10.88;;;7.38;;
37203;SDS011;23098;48.054;10.636;2023-05-29T05:12:32;13.75;;;7.40;;
37203;SDS011;23098;48.054;10.636;2023-05-29T05:14:57;12.57;;;7.85;;
37203;SDS011;23098;48.054;10.636;2023-05-29T05:17:23;13.25;;;8.13;;
37203;SDS011;23098;48.054;10.636;2023-05-29T05:19:48;13.55;;;7.90;;
37203;SDS011;23098;48.054;10.636;2023-05-29T05:22:15;13.23;;;7.43;;
37203;SDS011;23098;48.054;10.636;2023-05-29T05:24:41;11.60;;;7.35;;
37203;SDS011;23098;48.054;10.636;2023-05-29T05:27:06;14.57;;;7.68;;
37203;SDS011;23098;48.054;10.636;2023-05-29T05:29:32;12.93;;;7.05;;
37203;SDS011;23098;48.054;10.636;2023-05-29T05:31:57;10.95;;;6.97;;
37203;SDS011;23098;48.054;10.636;2023-05-29T05:34:23;11.80;;;7.10;;
37203;SDS011;23098;48.054;10.636;2023-05-29T05:36:48;13.60;;;7.07;;
37203;SDS011;23098;48.054;10.636;2023-05-29T05:39:14;12.07;;;7.00;;
37203;SDS011;23098;48.054;10.636;2023-05-29T05:41:40;13.02;;;7.20;;
37203;SDS011;23098;48.054;10.636;2023-05-29T05:44:05;9.63;;;7.03;;
37203;SDS011;23098;48.054;10.636;2023-05-29T05:46:31;11.88;;;7.38;;
37203;SDS011;23098;48.054;10.636;2023-05-29T05:48:56;11.80;;;7.50;;
37203;SDS011;23098;48.054;10.636;2023-05-29T05:51:22;10.88;;;6.75;;
37203;SDS011;23098;48.054;10.636;2023-05-29T05:53:48;11.55;;;7.13;;
37203;SDS011;23098;48.054;10.636;2023-05-29T05:56:14;13.27;;;7.00;;
37203;SDS011;23098;48.054;10.636;2023-05-29T05:58:40;11.02;;;6.80;;
37203;SDS011;23098;48.054;10.636;2023-05-29T06:01:06;9.90;;;6.68;;
37203;SDS011;23098;48.054;10.636;2023-05-29T06:03:33;10.00;;;6.85;;
37203;SDS011;23098;48.054;10.636;2023-05-29T06:05:59;11.00;;;6.65;;
37203;SDS011;23098;48.054;10.636;2023-05-29T06:08:25;12.00;;;6.68;;
37203;SDS011;23098;48.054;10.636;2023-05-29T06:10:51;11.23;;;7.30;;
37203;SDS011;23098;48.054;10.636;2023-05-29T06:13:17;11.98;;;7.13;;
37203;SDS011;23098;48.054;10.636;2023-05-29T06:15:43;13.45;;;7.22;;
37203;SDS011;23098;48.054;10.636;2023-05-29T06:18:08;14.13;;;7.22;;
37203;SDS011;23098;48.054;10.636;2023-05-29T06:20:34;11.13;;;6.70;;
37203;SDS011;23098;48.054;10.636;2023-05-29T06:22:59;10.07;;;6.90;;
37203;SDS011;23098;48.054;10.636;2023-05-29T06:25:25;13.52;;;6.68;;
37203;SDS011;23098;48.054;10.636;2023-05-29T06:27:57;9.07;;;6.45;;
37203;SDS011;23098;48.054;10.636;2023-05-29T06:30:26;11.00;;;7.00;;
37203;SDS011;23098;48.054;10.636;2023-05-29T06:32:52;11.70;;;7.45;;
37203;SDS011;23098;48.054;10.636;2023-05-29T06:35:18;11.45;;;7.40;;
37203;SDS011;23098;48.054;10.636;2023-05-29T06:37:45;10.35;;;6.43;;
37203;SDS011;23098;48.054;10.636;2023-05-29T06:40:11;13.52;;;7.28;;
37203;SDS011;23098;48.054;10.636;2023-05-29T06:42:37;11.55;;;7.00;;
37203;SDS011;23098;48.054;10.636;2023-05-29T06:45:03;11.80;;;6.57;;
37203;SDS011;23098;48.054;10.636;2023-05-29T06:47:29;12.40;;;6.68;;
37203;SDS011;23098;48.054;10.636;2023-05-29T06:49:55;13.95;;;7.28;;
37203;SDS011;23098;48.054;10.636;2023-05-29T06:52:20;11.70;;;7.20;;
37203;SDS011;23098;48.054;10.636;2023-05-29T06:54:46;12.07;;;7.05;;
37203;SDS011;23098;48.054;10.636;2023-05-29T06:57:12;14.02;;;6.88;;
37203;SDS011;23098;48.054;10.636;2023-05-29T06:59:37;10.85;;;6.75;;
37203;SDS011;23098;48.054;10.636;2023-05-29T07:02:03;14.80;;;7.10;;
37203;SDS011;23098;48.054;10.636;2023-05-29T07:04:29;13.00;;;6.90;;
37203;SDS011;23098;48.054;10.636;2023-05-29T07:06:54;10.48;;;6.47;;
37203;SDS011;23098;48.054;10.636;2023-05-29T07:09:20;11.25;;;6.95;;
37203;SDS011;23098;48.054;10.636;2023-05-29T07:11:45;9.82;;;6.65;;
37203;SDS011;23098;48.054;10.636;2023-05-29T07:14:11;12.55;;;6.82;;
37203;SDS011;23098;48.054;10.636;2023-05-29T07:16:37;10.52;;;6.70;;
37203;SDS011;23098;48.054;10.636;2023-05-29T07:19:03;11.15;;;6.78;;
37203;SDS011;23098;48.054;10.636;2023-05-29T07:21:29;11.95;;;6.47;;
37203;SDS011;23098;48.054;10.636;2023-05-29T07:23:56;9.07;;;6.57;;
37203;SDS011;23098;48.054;10.636;2023-05-29T07:26:21;12.90;;;6.72;;
37203;SDS011;23098;48.054;10.636;2023-05-29T07:28:47;13.45;;;7.05;;
37203;SDS011;23098;48.054;10.636;2023-05-29T07:31:13;10.30;;;6.28;;
37203;SDS011;23098;48.054;10.636;2023-05-29T07:33:39;10.13;;;6.20;;
37203;SDS011;23098;48.054;10.636;2023-05-29T07:36:06;12.40;;;6.40;;
37203;SDS011;23098;48.054;10.636;2023-05-29T07:38:32;11.50;;;6.00;;
37203;SDS011;23098;48.054;10.636;2023-05-29T07:40:58;10.98;;;6.65;;
37203;SDS011;23098;48.054;10.636;2023-05-29T07:43:23;10.98;;;6.40;;
37203;SDS011;23098;48.054;10.636;2023-05-29T07:45:49;8.82;;;5.75;;
37203;SDS011;23098;48.054;10.636;2023-05-29T07:48:14;13.00;;;6.40;;
37203;SDS011;23098;48.054;10.636;2023-05-29T07:50:40;11.45;;;6.00;;
37203;SDS011;23098;48.054;10.636;2023-05-29T07:53:05;13.95;;;5.95;;
37203;SDS011;23098;48.054;10.636;2023-05-29T07:55:31;11.45;;;6.07;;
37203;SDS011;23098;48.054;10.636;2023-05-29T07:57:58;8.75;;;5.60;;
37203;SDS011;23098;48.054;10.636;2023-05-29T08:00:24;9.75;;;6.13;;
37203;SDS011;23098;48.054;10.636;2023-05-29T08:02:50;12.65;;;6.10;;
37203;SDS011;23098;48.054;10.636;2023-05-29T08:05:17;10.25;;;6.15;;
37203;SDS011;23098;48.054;10.636;2023-05-29T08:07:43;9.77;;;5.80;;
37203;SDS011;23098;48.054;10.636;2023-05-29T08:10:09;8.90;;;5.60;;
37203;SDS011;23098;48.054;10.636;2023-05-29T08:12:34;9.57;;;5.80;;
37203;SDS011;23098;48.054;10.636;2023-05-29T08:15:01;11.77;;;5.78;;
37203;SDS011;23098;48.054;10.636;2023-05-29T08:17:27;10.18;;;5.60;;
37203;SDS011;23098;48.054;10.636;2023-05-29T08:19:53;9.77;;;5.55;;
37203;SDS011;23098;48.054;10.636;2023-05-29T08:22:18;9.45;;;5.40;;
37203;SDS011;23098;48.054;10.636;2023-05-29T08:24:44;10.98;;;5.43;;
37203;SDS011;23098;48.054;10.636;2023-05-29T08:27:09;8.30;;;5.35;;
37203;SDS011;23098;48.054;10.636;2023-05-29T08:29:35;11.10;;;5.55;;
37203;SDS011;23098;48.054;10.636;2023-05-29T08:32:01;10.52;;;5.72;;
37203;SDS011;23098;48.054;10.636;2023-05-29T08:34:27;13.05;;;5.03;;
37203;SDS011;23098;48.054;10.636;2023-05-29T08:36:52;8.20;;;4.80;;
37203;SDS011;23098;48.054;10.636;2023-05-29T08:39:19;8.00;;;4.68;;
37203;SDS011;23098;48.054;10.636;2023-05-29T08:44:32;11.00;;;5.10;;
37203;SDS011;23098;48.054;10.636;2023-05-29T08:46:59;8.57;;;4.72;;
37203;SDS011;23098;48.054;10.636;2023-05-29T08:49:28;8.95;;;4.68;;
37203;SDS011;23098;48.054;10.636;2023-05-29T08:51:57;9.02;;;4.45;;
37203;SDS011;23098;48.054;10.636;2023-05-29T08:57:04;17.70;;;9.88;;
37203;SDS011;23098;48.054;10.636;2023-05-29T08:59:30;21.52;;;11.68;;
37203;SDS011;23098;48.054;10.636;2023-05-29T09:01:59;14.75;;;8.60;;
37203;SDS011;23098;48.054;10.636;2023-05-29T09:04:25;31.52;;;15.82;;
37203;SDS011;23098;48.054;10.636;2023-05-29T09:06:51;8.55;;;4.85;;
37203;SDS011;23098;48.054;10.636;2023-05-29T09:09:17;10.57;;;5.40;;
37203;SDS011;23098;48.054;10.636;2023-05-29T09:11:43;12.05;;;5.00;;
37203;SDS011;23098;48.054;10.636;2023-05-29T09:17:01;10.05;;;7.18;;
37203;SDS011;23098;48.054;10.636;2023-05-29T09:19:27;7.72;;;4.30;;
37203;SDS011;23098;48.054;10.636;2023-05-29T09:21:59;6.88;;;4.40;;
37203;SDS011;23098;48.054;10.636;2023-05-29T09:24:27;9.65;;;4.13;;
37203;SDS011;23098;48.054;10.636;2023-05-29T09:26:53;10.20;;;4.47;;
37203;SDS011;23098;48.054;10.636;2023-05-29T09:29:18;8.73;;;4.47;;
37203;SDS011;23098;48.054;10.636;2023-05-29T09:31:48;8.65;;;4.20;;
37203;SDS011;23098;48.054;10.636;2023-05-29T09:34:14;7.05;;;4.20;;
37203;SDS011;23098;48.054;10.636;2023-05-29T09:36:40;6.70;;;4.30;;
37203;SDS011;23098;48.054;10.636;2023-05-29T09:39:05;8.85;;;4.95;;
37203;SDS011;23098;48.054;10.636;2023-05-29T09:41:34;9.82;;;4.25;;
37203;SDS011;23098;48.054;10.636;2023-05-29T09:44:07;8.65;;;4.28;;
37203;SDS011;23098;48.054;10.636;2023-05-29T09:46:35;10.70;;;4.63;;
37203;SDS011;23098;48.054;10.636;2023-05-29T09:49:01;7.18;;;3.50;;
37203;SDS011;23098;48.054;10.636;2023-05-29T09:51:28;6.68;;;4.07;;
37203;SDS011;23098;48.054;10.636;2023-05-29T09:53:55;8.18;;;4.03;;
37203;SDS011;23098;48.054;10.636;2023-05-29T09:56:25;7.25;;;3.92;;
37203;SDS011;23098;48.054;10.636;2023-05-29T09:58:53;7.43;;;4.28;;
37203;SDS011;23098;48.054;10.636;2023-05-29T10:01:21;11.38;;;4.32;;
37203;SDS011;23098;48.054;10.636;2023-05-29T10:03:48;8.75;;;4.05;;
37203;SDS011;23098;48.054;10.636;2023-05-29T10:06:16;7.57;;;4.10;;
37203;SDS011;23098;48.054;10.636;2023-05-29T10:08:45;13.93;;;8.35;;
37203;SDS011;23098;48.054;10.636;2023-05-29T10:11:16;7.80;;;4.60;;
37203;SDS011;23098;48.054;10.636;2023-05-29T10:13:49;10.75;;;4.30;;
37203;SDS011;23098;48.054;10.636;2023-05-29T10:16:16;7.75;;;4.45;;
37203;SDS011;23098;48.054;10.636;2023-05-29T10:18:47;10.25;;;6.40;;
37203;SDS011;23098;48.054;10.636;2023-05-29T10:21:19;8.15;;;5.20;;
37203;SDS011;23098;48.054;10.636;2023-05-29T10:23:47;15.40;;;10.10;;
37203;SDS011;23098;48.054;10.636;2023-05-29T10:26:15;13.13;;;7.57;;
37203;SDS011;23098;48.054;10.636;2023-05-29T10:28:46;6.28;;;4.00;;
37203;SDS011;23098;48.054;10.636;2023-05-29T10:32:00;8.27;;;3.80;;
37203;SDS011;23098;48.054;10.636;2023-05-29T10:34:41;10.10;;;6.22;;
37203;SDS011;23098;48.054;10.636;2023-05-29T10:37:31;5.88;;;2.95;;
37203;SDS011;23098;48.054;10.636;2023-05-29T10:40:05;9.18;;;3.38;;
37203;SDS011;23098;48.054;10.636;2023-05-29T10:45:10;7.00;;;3.65;;
37203;SDS011;23098;48.054;10.636;2023-05-29T10:47:38;7.15;;;3.58;;
37203;SDS011;23098;48.054;10.636;2023-05-29T10:50:04;8.43;;;3.80;;
37203;SDS011;23098;48.054;10.636;2023-05-29T10:52:33;5.63;;;3.65;;
37203;SDS011;23098;48.054;10.636;2023-05-29T10:55:00;5.82;;;3.33;;
37203;SDS011;23098;48.054;10.636;2023-05-29T10:57:29;6.57;;;3.53;;
37203;SDS011;23098;48.054;10.636;2023-05-29T10:59:59;7.53;;;3.60;;
37203;SDS011;23098;48.054;10.636;2023-05-29T11:02:31;6.65;;;3.63;;
37203;SDS011;23098;48.054;10.636;2023-05-29T11:07:52;6.00;;;3.72;;
37203;SDS011;23098;48.054;10.636;2023-05-29T11:13:08;7.75;;;4.07;;
37203;SDS011;23098;48.054;10.636;2023-05-29T11:15:34;7.70;;;3.75;;
37203;SDS011;23098;48.054;10.636;2023-05-29T11:18:08;5.93;;;3.70;;
37203;SDS011;23098;48.054;10.636;2023-05-29T11:20:37;6.70;;;3.60;;
37203;SDS011;23098;48.054;10.636;2023-05-29T11:25:44;8.73;;;3.58;;
37203;SDS011;23098;48.054;10.636;2023-05-29T11:28:12;5.57;;;3.55;;
37203;SDS011;23098;48.054;10.636;2023-05-29T11:30:44;5.45;;;3.30;;
37203;SDS011;23098;48.054;10.636;2023-05-29T11:33:14;10.35;;;3.90;;
37203;SDS011;23098;48.054;10.636;2023-05-29T11:35:56;7.25;;;3.80;;
37203;SDS011;23098;48.054;10.636;2023-05-29T11:38:25;7.72;;;4.00;;
37203;SDS011;23098;48.054;10.636;2023-05-29T11:40:53;5.55;;;3.42;;
37203;SDS011;23098;48.054;10.636;2023-05-29T11:43:20;6.43;;;3.38;;
37203;SDS011;23098;48.054;10.636;2023-05-29T11:45:46;5.43;;;3.58;;
37203;SDS011;23098;48.054;10.636;2023-05-29T11:48:11;6.60;;;3.30;;
37203;SDS011;23098;48.054;10.636;2023-05-29T11:50:37;6.57;;;3.72;;
37203;SDS011;23098;48.054;10.636;2023-05-29T11:53:05;7.80;;;3.50;;
37203;SDS011;23098;48.054;10.636;2023-05-29T11:55:32;4.85;;;3.13;;
37203;SDS011;23098;48.054;10.636;2023-05-29T11:58:01;7.25;;;3.20;;
37203;SDS011;23098;48.054;10.636;2023-05-29T12:00:30;7.25;;;3.58;;
37203;SDS011;23098;48.054;10.636;2023-05-29T12:02:58;7.03;;;3.50;;
37203;SDS011;23098;48.054;10.636;2023-05-29T12:05:28;6.53;;;3.47;;
37203;SDS011;23098;48.054;10.636;2023-05-29T12:07:54;4.97;;;3.13;;
37203;SDS011;23098;48.054;10.636;2023-05-29T12:10:25;6.35;;;3.20;;
37203;SDS011;23098;48.054;10.636;2023-05-29T12:13:01;5.63;;;3.50;;
37203;SDS011;23098;48.054;10.636;2023-05-29T12:15:27;4.07;;;3.00;;
37203;SDS011;23098;48.054;10.636;2023-05-29T12:17:53;6.20;;;3.33;;
37203;SDS011;23098;48.054;10.636;2023-05-29T12:20:19;5.85;;;3.45;;
37203;SDS011;23098;48.054;10.636;2023-05-29T12:22:48;5.88;;;3.22;;
37203;SDS011;23098;48.054;10.636;2023-05-29T12:25:15;5.78;;;3.63;;
37203;SDS011;23098;48.054;10.636;2023-05-29T12:27:43;4.55;;;3.45;;
37203;SDS011;23098;48.054;10.636;2023-05-29T12:30:12;5.93;;;3.58;;
37203;SDS011;23098;48.054;10.636;2023-05-29T12:32:41;5.45;;;3.55;;
37203;SDS011;23098;48.054;10.636;2023-05-29T12:35:18;4.30;;;3.25;;
37203;SDS011;23098;48.054;10.636;2023-05-29T12:37:57;7.28;;;3.00;;
37203;SDS011;23098;48.054;10.636;2023-05-29T12:40:23;4.65;;;3.40;;
37203;SDS011;23098;48.054;10.636;2023-05-29T12:42:54;6.60;;;3.50;;
37203;SDS011;23098;48.054;10.636;2023-05-29T12:45:31;5.47;;;3.03;;
37203;SDS011;23098;48.054;10.636;2023-05-29T12:47:58;5.32;;;3.33;;
37203;SDS011;23098;48.054;10.636;2023-05-29T12:50:31;7.07;;;2.73;;
37203;SDS011;23098;48.054;10.636;2023-05-29T12:53:03;3.90;;;3.08;;
37203;SDS011;23098;48.054;10.636;2023-05-29T12:55:34;6.28;;;3.47;;
37203;SDS011;23098;48.054;10.636;2023-05-29T12:58:04;4.35;;;2.55;;
37203;SDS011;23098;48.054;10.636;2023-05-29T13:00:30;6.93;;;3.63;;
37203;SDS011;23098;48.054;10.636;2023-05-29T13:02:56;5.95;;;3.03;;
37203;SDS011;23098;48.054;10.636;2023-05-29T13:05:23;4.50;;;3.40;;
37203;SDS011;23098;48.054;10.636;2023-05-29T13:07:49;6.95;;;3.20;;
37203;SDS011;23098;48.054;10.636;2023-05-29T13:10:15;5.18;;;3.20;;
37203;SDS011;23098;48.054;10.636;2023-05-29T13:12:42;4.95;;;3.08;;
37203;SDS011;23098;48.054;10.636;2023-05-29T13:15:09;5.55;;;3.22;;
37203;SDS011;23098;48.054;10.636;2023-05-29T13:17:36;6.28;;;3.28;;
37203;SDS011;23098;48.054;10.636;2023-05-29T13:20:02;3.80;;;2.90;;
37203;SDS011;23098;48.054;10.636;2023-05-29T13:22:31;4.22;;;2.75;;
37203;SDS011;23098;48.054;10.636;2023-05-29T13:24:57;5.55;;;2.70;;
37203;SDS011;23098;48.054;10.636;2023-05-29T13:27:24;6.18;;;3.50;;
37203;SDS011;23098;48.054;10.636;2023-05-29T13:29:50;6.55;;;3.28;;
37203;SDS011;23098;48.054;10.636;2023-05-29T13:32:16;5.10;;;2.90;;
37203;SDS011;23098;48.054;10.636;2023-05-29T13:34:42;5.55;;;2.95;;
37203;SDS011;23098;48.054;10.636;2023-05-29T13:37:07;9.70;;;3.40;;
37203;SDS011;23098;48.054;10.636;2023-05-29T13:39:33;5.35;;;3.13;;
37203;SDS011;23098;48.054;10.636;2023-05-29T13:41:58;6.32;;;3.13;;
37203;SDS011;23098;48.054;10.636;2023-05-29T13:44:25;4.60;;;3.25;;
37203;SDS011;23098;48.054;10.636;2023-05-29T13:46:50;5.82;;;3.20;;
37203;SDS011;23098;48.054;10.636;2023-05-29T13:49:19;6.05;;;3.40;;
37203;SDS011;23098;48.054;10.636;2023-05-29T13:51:45;5.70;;;2.70;;
37203;SDS011;23098;48.054;10.636;2023-05-29T13:54:11;4.28;;;2.60;;
37203;SDS011;23098;48.054;10.636;2023-05-29T13:56:37;7.00;;;3.00;;
37203;SDS011;23098;48.054;10.636;2023-05-29T13:59:03;3.55;;;2.65;;
37203;SDS011;23098;48.054;10.636;2023-05-29T14:01:30;5.10;;;2.53;;
37203;SDS011;23098;48.054;10.636;2023-05-29T14:03:57;4.80;;;3.10;;
37203;SDS011;23098;48.054;10.636;2023-05-29T14:06:22;4.78;;;2.60;;
37203;SDS011;23098;48.054;10.636;2023-05-29T14:08:48;4.30;;;3.00;;
37203;SDS011;23098;48.054;10.636;2023-05-29T14:11:13;4.72;;;3.10;;
37203;SDS011;23098;48.054;10.636;2023-05-29T14:13:39;6.22;;;2.95;;
37203;SDS011;23098;48.054;10.636;2023-05-29T14:16:04;5.95;;;2.90;;
37203;SDS011;23098;48.054;10.636;2023-05-29T14:18:30;5.53;;;2.88;;
37203;SDS011;23098;48.054;10.636;2023-05-29T14:20:55;6.53;;;3.30;;
37203;SDS011;23098;48.054;10.636;2023-05-29T14:23:21;5.95;;;2.90;;
37203;SDS011;23098;48.054;10.636;2023-05-29T14:25:47;3.50;;;2.50;;
37203;SDS011;23098;48.054;10.636;2023-05-29T14:28:12;4.90;;;2.70;;
37203;SDS011;23098;48.054;10.636;2023-05-29T14:30:38;5.38;;;3.35;;
37203;SDS011;23098;48.054;10.636;2023-05-29T14:33:03;4.05;;;2.78;;
37203;SDS011;23098;48.054;10.636;2023-05-29T14:35:29;6.57;;;3.20;;
37203;SDS011;23098;48.054;10.636;2023-05-29T14:37:55;4.97;;;2.85;;
37203;SDS011;23098;48.054;10.636;2023-05-29T14:40:23;4.35;;;2.55;;
37203;SDS011;23098;48.054;10.636;2023-05-29T14:42:50;6.75;;;3.03;;
37203;SDS011;23098;48.054;10.636;2023-05-29T14:45:16;5.45;;;3.05;;
37203;SDS011;23098;48.054;10.636;2023-05-29T14:47:42;5.22;;;2.90;;